createdAt,value
2023-04-25T00:01:41.184Z,6.80
2023-04-25T00:04:08.044Z,6.77
2023-04-25T00:06:37.716Z,6.60
2023-04-25T00:09:08.293Z,6.72
2023-04-25T00:11:34.907Z,6.69
2023-04-25T00:14:03.046Z,6.53
2023-04-25T00:16:31.665Z,6.65
2023-04-25T00:18:59.633Z,6.85
2023-04-25T00:21:26.489Z,6.65
2023-04-25T00:23:56.649Z,6.55
2023-04-25T00:26:23.057Z,6.34
2023-04-25T00:28:49.632Z,6.62
2023-04-25T00:31:16.092Z,6.60
2023-04-25T00:33:42.667Z,6.51
2023-04-25T00:36:09.615Z,6.57
2023-04-25T00:38:36.050Z,6.72
2023-04-25T00:41:02.435Z,6.88
2023-04-25T00:43:29.084Z,6.93
2023-04-25T00:45:56.752Z,6.90
2023-04-25T00:48:23.782Z,6.71
2023-04-25T00:50:55.370Z,6.58
2023-04-25T00:53:26.412Z,6.69
2023-04-25T00:55:53.419Z,6.85
2023-04-25T00:58:21.056Z,6.76
2023-04-25T01:00:49.138Z,7.01
2023-04-25T01:03:21.261Z,6.83
2023-04-25T01:05:48.944Z,7.16
2023-04-25T01:08:15.489Z,6.96
2023-04-25T01:10:41.977Z,7.04
2023-04-25T01:13:08.486Z,7.34
2023-04-25T01:15:36.667Z,6.84
2023-04-25T01:18:04.695Z,6.88
2023-04-25T01:20:33.283Z,6.61
2023-04-25T01:22:59.774Z,7.15
2023-04-25T01:25:26.220Z,6.72
2023-04-25T01:27:52.774Z,6.53
2023-04-25T01:30:19.353Z,7.01
2023-04-25T01:32:45.894Z,7.06
2023-04-25T01:35:13.122Z,7.23
2023-04-25T01:37:43.692Z,7.22
2023-04-25T01:40:11.512Z,6.86
2023-04-25T01:42:39.341Z,6.91
2023-04-25T01:45:06.664Z,7.07
2023-04-25T01:47:33.305Z,6.89
2023-04-25T01:49:59.716Z,6.84
2023-04-25T01:52:26.128Z,6.88
2023-04-25T01:54:54.346Z,7.07
2023-04-25T01:57:21.024Z,7.11
2023-04-25T01:59:47.461Z,6.80
2023-04-25T02:02:13.922Z,6.70
2023-04-25T02:04:40.593Z,6.68
2023-04-25T02:07:07.097Z,6.77
2023-04-25T02:09:33.475Z,6.40
2023-04-25T02:11:59.884Z,6.75
2023-04-25T02:14:26.305Z,7.00
2023-04-25T02:16:53.441Z,7.28
2023-04-25T02:19:19.880Z,6.78
2023-04-25T02:21:46.541Z,6.82
2023-04-25T02:24:12.932Z,6.78
2023-04-25T02:26:39.311Z,6.83
2023-04-25T02:29:05.769Z,7.16
2023-04-25T02:31:32.359Z,6.59
2023-04-25T02:33:58.893Z,6.59
2023-04-25T02:36:25.347Z,6.49
2023-04-25T02:38:51.715Z,6.49
2023-04-25T02:41:18.096Z,6.79
2023-04-25T02:43:44.459Z,6.57
2023-04-25T02:46:10.942Z,6.98
2023-04-25T02:48:37.306Z,6.86
2023-04-25T02:51:03.772Z,6.70
2023-04-25T02:53:30.198Z,6.42
2023-04-25T02:55:59.172Z,6.58
2023-04-25T02:58:25.808Z,6.68
2023-04-25T03:00:52.286Z,6.57
2023-04-25T03:03:19.191Z,6.73
2023-04-25T03:05:47.697Z,6.84
2023-04-25T03:08:14.093Z,6.98
2023-04-25T03:10:40.657Z,6.64
2023-04-25T03:13:07.026Z,6.72
2023-04-25T03:15:33.433Z,6.83
2023-04-25T03:17:59.846Z,6.75
2023-04-25T03:20:26.270Z,6.81
2023-04-25T03:22:52.655Z,6.65
2023-04-25T03:25:19.106Z,6.69
2023-04-25T03:27:45.536Z,6.49
2023-04-25T03:30:12.122Z,6.56
2023-04-25T03:32:38.629Z,6.78
2023-04-25T03:35:06.263Z,6.92
2023-04-25T03:37:32.638Z,6.56
2023-04-25T03:39:59.010Z,6.59
2023-04-25T03:42:25.512Z,6.73
2023-04-25T03:44:52.830Z,6.66
2023-04-25T03:47:19.215Z,6.66
2023-04-25T03:49:45.687Z,6.57
2023-04-25T03:52:12.230Z,6.51
2023-04-25T03:54:38.607Z,6.39
2023-04-25T03:57:05.011Z,6.36
2023-04-25T03:59:31.385Z,6.39
2023-04-25T04:01:57.853Z,6.24
2023-04-25T04:04:24.350Z,6.33
2023-04-25T04:06:51.701Z,6.57
2023-04-25T04:09:18.772Z,6.54
2023-04-25T04:11:45.260Z,6.28
2023-04-25T04:14:11.868Z,6.22
2023-04-25T04:16:38.618Z,6.23
2023-04-25T04:19:05.454Z,6.02
2023-04-25T04:21:32.937Z,6.50
2023-04-25T04:24:01.089Z,6.41
2023-04-25T04:26:27.651Z,6.78
2023-04-25T04:28:55.243Z,6.75
2023-04-25T04:31:22.853Z,6.38
2023-04-25T04:33:49.509Z,6.60
2023-04-25T04:36:16.686Z,6.26
2023-04-25T04:38:43.272Z,6.20
2023-04-25T04:41:09.769Z,6.18
2023-04-25T04:43:36.333Z,6.41
2023-04-25T04:46:04.643Z,6.43
2023-04-25T04:48:35.178Z,6.39
2023-04-25T04:51:02.180Z,6.44
2023-04-25T04:53:29.333Z,6.57
2023-04-25T04:55:55.841Z,6.51
2023-04-25T04:58:22.414Z,6.69
2023-04-25T05:00:48.934Z,6.70
2023-04-25T05:03:15.495Z,6.61
2023-04-25T05:05:42.467Z,6.58
2023-04-25T05:08:08.890Z,6.75
2023-04-25T05:10:35.293Z,6.37
2023-04-25T05:13:01.700Z,6.34
2023-04-25T05:15:28.129Z,6.56
2023-04-25T05:17:54.599Z,6.56
2023-04-25T05:20:21.139Z,6.51
2023-04-25T05:22:47.579Z,6.71
2023-04-25T05:25:14.020Z,6.87
2023-04-25T05:27:40.418Z,6.29
2023-04-25T05:30:07.833Z,6.20
2023-04-25T05:32:34.359Z,6.51
2023-04-25T05:35:00.886Z,6.54
2023-04-25T05:37:27.462Z,6.54
2023-04-25T05:39:54.243Z,6.60
2023-04-25T05:42:20.619Z,6.78
2023-04-25T05:44:47.015Z,6.92
2023-04-25T05:47:13.469Z,6.85
2023-04-25T05:49:39.856Z,6.84
2023-04-25T05:52:06.256Z,6.84
2023-04-25T05:54:32.660Z,7.16
2023-04-25T05:56:59.047Z,6.82
2023-04-25T05:59:25.464Z,7.10
2023-04-25T06:01:52.628Z,7.10
2023-04-25T06:04:19.172Z,6.71
2023-04-25T06:06:46.524Z,7.31
2023-04-25T06:09:14.393Z,7.38
2023-04-25T06:11:40.948Z,6.58
2023-04-25T06:14:07.784Z,7.09
2023-04-25T06:16:34.350Z,7.32
2023-04-25T06:19:00.781Z,7.23
2023-04-25T06:21:28.307Z,6.90
2023-04-25T06:23:54.782Z,7.18
2023-04-25T06:26:21.190Z,7.24
2023-04-25T06:28:47.627Z,7.23
2023-04-25T06:31:14.057Z,7.36
2023-04-25T06:33:41.602Z,7.27
2023-04-25T06:36:08.128Z,7.60
2023-04-25T06:38:35.720Z,7.36
2023-04-25T06:41:02.151Z,7.59
2023-04-25T06:43:28.557Z,7.61
2023-04-25T06:45:54.960Z,7.68
2023-04-25T06:48:21.327Z,7.78
2023-04-25T06:50:47.734Z,7.77
2023-04-25T06:53:14.140Z,7.70
2023-04-25T06:55:40.521Z,7.63
2023-04-25T06:58:08.039Z,7.94
2023-04-25T07:00:34.572Z,8.09
2023-04-25T07:03:01.128Z,7.70
2023-04-25T07:05:27.865Z,8.25
2023-04-25T07:07:54.292Z,8.49
2023-04-25T07:10:22.250Z,8.01
2023-04-25T07:12:48.844Z,7.93
2023-04-25T07:15:15.485Z,8.01
2023-04-25T07:17:41.915Z,8.37
2023-04-25T07:20:10.079Z,8.47
2023-04-25T07:22:36.455Z,8.33
2023-04-25T07:25:03.011Z,8.23
2023-04-25T07:27:29.503Z,8.41
2023-04-25T07:29:55.946Z,8.08
2023-04-25T07:32:22.401Z,8.08
2023-04-25T07:34:48.833Z,7.96
2023-04-25T07:37:15.395Z,8.10
2023-04-25T07:39:42.852Z,7.92
2023-04-25T07:42:09.269Z,7.78
2023-04-25T07:44:39.586Z,8.21
2023-04-25T07:47:07.997Z,8.21
2023-04-25T07:49:37.942Z,8.21
2023-04-25T07:52:06.394Z,8.48
2023-04-25T07:54:33.334Z,8.45
2023-04-25T07:56:59.812Z,8.55
2023-04-25T07:59:28.005Z,8.20
2023-04-25T08:01:56.069Z,8.30
2023-04-25T08:04:22.622Z,8.54
2023-04-25T08:06:49.305Z,8.60
2023-04-25T08:09:16.519Z,8.88
2023-04-25T08:11:42.995Z,8.69
2023-04-25T08:14:09.374Z,8.84
2023-04-25T08:16:35.996Z,8.63
2023-04-25T08:19:03.806Z,8.66
2023-04-25T08:21:30.351Z,8.86
2023-04-25T08:23:57.473Z,8.51
2023-04-25T08:26:23.850Z,8.65
2023-04-25T08:28:50.570Z,9.02
2023-04-25T08:31:17.541Z,9.24
2023-04-25T08:33:44.532Z,8.60
2023-04-25T08:36:11.113Z,8.70
2023-04-25T08:38:37.694Z,9.06
2023-04-25T08:41:04.488Z,9.22
2023-04-25T08:43:34.197Z,9.21
2023-04-25T08:46:01.421Z,9.21
2023-04-25T08:48:29.295Z,9.43
2023-04-25T08:50:57.131Z,9.41
2023-04-25T08:53:28.429Z,8.89
2023-04-25T08:55:56.581Z,9.20
2023-04-25T08:58:23.779Z,9.17
2023-04-25T09:00:50.910Z,9.25
2023-04-25T09:03:18.448Z,8.94
2023-04-25T09:05:45.002Z,9.05
2023-04-25T09:08:11.507Z,9.04
2023-04-25T09:10:38.238Z,9.30
2023-04-25T09:13:09.810Z,9.54
2023-04-25T09:15:52.969Z,9.06
2023-04-25T09:18:31.092Z,9.15
2023-04-25T09:21:13.045Z,8.72
2023-04-25T09:23:48.681Z,8.81
2023-04-25T09:26:17.869Z,8.46
2023-04-25T09:28:44.345Z,8.23
2023-04-25T09:31:12.107Z,8.63
2023-04-25T09:33:38.798Z,8.66
2023-04-25T09:36:09.831Z,8.85
2023-04-25T09:38:46.978Z,9.02
2023-04-25T09:41:13.701Z,8.94
2023-04-25T09:43:40.607Z,9.21
2023-04-25T09:46:12.017Z,9.25
2023-04-25T09:48:38.657Z,9.36
2023-04-25T09:51:13.457Z,9.59
2023-04-25T09:53:44.472Z,9.66
2023-04-25T09:56:12.173Z,10.13
2023-04-25T09:58:40.870Z,10.69
2023-04-25T10:01:09.806Z,10.84
2023-04-25T10:03:38.164Z,11.12
2023-04-25T10:06:08.647Z,10.28
2023-04-25T10:08:39.046Z,10.46
2023-04-25T10:11:07.841Z,10.76
2023-04-25T10:13:35.385Z,11.39
2023-04-25T10:16:03.509Z,10.59
2023-04-25T10:18:30.805Z,9.37
2023-04-25T10:20:58.906Z,9.45
2023-04-25T10:23:25.985Z,9.42
2023-04-25T10:25:53.020Z,9.29
2023-04-25T10:28:20.675Z,9.34
2023-04-25T10:31:13.492Z,9.62
2023-04-25T10:33:42.994Z,9.04
2023-04-25T10:36:14.026Z,9.66
2023-04-25T10:38:41.184Z,9.82
2023-04-25T10:41:09.945Z,9.99
2023-04-25T10:43:39.262Z,9.87
2023-04-25T10:46:24.589Z,9.95
2023-04-25T10:48:56.583Z,9.49
2023-04-25T10:51:51.010Z,9.36
2023-04-25T10:54:21.053Z,9.04
2023-04-25T10:56:50.016Z,8.86
2023-04-25T10:59:18.263Z,8.93
2023-04-25T11:01:49.995Z,8.50
2023-04-25T11:04:21.329Z,8.49
2023-04-25T11:06:55.855Z,8.61
2023-04-25T11:09:27.740Z,8.66
2023-04-25T11:11:59.134Z,8.77
2023-04-25T11:14:26.092Z,8.98
2023-04-25T11:17:00.729Z,8.93
2023-04-25T11:19:28.319Z,8.74
2023-04-25T11:21:58.826Z,9.38
2023-04-25T11:24:28.837Z,9.28
2023-04-25T11:26:55.449Z,9.57
2023-04-25T11:29:27.846Z,9.80
2023-04-25T11:31:58.722Z,9.86
2023-04-25T11:34:26.213Z,10.16
2023-04-25T11:36:53.683Z,10.55
2023-04-25T11:39:20.623Z,10.39
2023-04-25T11:41:47.613Z,11.15
2023-04-25T11:44:17.138Z,10.97
2023-04-25T11:46:44.126Z,10.63
2023-04-25T11:49:10.633Z,11.56
2023-04-25T11:51:41.514Z,11.15
2023-04-25T11:54:08.150Z,11.41
2023-04-25T11:56:34.586Z,11.82
2023-04-25T11:59:02.611Z,12.76
2023-04-25T12:01:35.555Z,12.69
2023-04-25T12:04:22.432Z,12.51
2023-04-25T12:06:51.595Z,12.14
2023-04-25T12:09:22.892Z,12.25
2023-04-25T12:11:53.484Z,12.80
2023-04-25T12:14:30.252Z,12.99
2023-04-25T12:16:58.872Z,13.66
2023-04-25T12:19:25.915Z,13.67
2023-04-25T12:24:26.722Z,12.30
2023-04-25T12:27:04.992Z,12.62
2023-04-25T12:29:42.054Z,12.35
2023-04-25T12:32:15.485Z,11.90
2023-04-25T12:34:41.857Z,11.22
2023-04-25T12:37:08.402Z,11.45
2023-04-25T12:39:34.854Z,10.96
2023-04-25T12:42:01.890Z,10.56
2023-04-25T12:44:28.272Z,10.14
2023-04-25T12:46:55.523Z,9.85
2023-04-25T12:49:22.033Z,9.73
2023-04-25T12:51:48.435Z,9.94
2023-04-25T12:54:15.367Z,10.03
2023-04-25T12:56:42.125Z,9.95
2023-04-25T12:59:08.622Z,10.18
2023-04-25T13:01:36.539Z,10.39
2023-04-25T13:04:03.369Z,9.98
2023-04-25T13:06:31.318Z,10.31
2023-04-25T13:08:57.724Z,10.89
2023-04-25T13:11:24.125Z,11.84
2023-04-25T13:13:50.812Z,13.26
2023-04-25T13:16:17.539Z,13.61
2023-04-25T13:18:43.979Z,13.73
2023-04-25T13:21:11.839Z,13.98
2023-04-25T13:23:38.216Z,15.01
2023-04-25T13:26:04.757Z,15.93
2023-04-25T13:28:31.358Z,15.86
2023-04-25T13:30:57.799Z,15.00
2023-04-25T13:33:24.196Z,14.74
2023-04-25T13:35:58.065Z,14.32
2023-04-25T13:38:26.209Z,12.63
2023-04-25T13:40:53.136Z,10.39
2023-04-25T13:43:23.575Z,9.91
2023-04-25T13:45:50.857Z,8.83
2023-04-25T13:48:17.370Z,8.62
2023-04-25T13:50:43.787Z,8.87
2023-04-25T13:53:10.325Z,8.85
2023-04-25T13:55:37.832Z,8.89
2023-04-25T13:58:08.464Z,9.29
2023-04-25T14:00:37.823Z,9.29
2023-04-25T14:03:07.970Z,9.54
2023-04-25T14:05:38.797Z,9.98
2023-04-25T14:08:09.673Z,9.85
2023-04-25T14:10:36.538Z,9.91
2023-04-25T14:13:04.094Z,10.48
2023-04-25T14:15:32.456Z,11.25
2023-04-25T14:17:59.120Z,13.13
2023-04-25T14:20:25.584Z,13.58
2023-04-25T14:22:52.974Z,15.02
2023-04-25T14:25:19.417Z,14.74
2023-04-25T14:27:50.447Z,13.73
2023-04-25T14:30:18.636Z,13.29
2023-04-25T14:32:45.909Z,14.85
2023-04-25T14:35:12.650Z,15.07
2023-04-25T14:37:39.127Z,15.90
2023-04-25T14:40:06.131Z,16.47
2023-04-25T14:42:33.864Z,15.22
2023-04-25T14:45:00.245Z,15.57
2023-04-25T14:47:26.710Z,14.10
2023-04-25T14:49:55.044Z,13.04
2023-04-25T14:52:21.961Z,12.14
2023-04-25T14:54:48.387Z,10.72
2023-04-25T14:57:15.261Z,9.28
2023-04-25T14:59:42.051Z,9.48
2023-04-25T15:02:08.484Z,9.44
2023-04-25T15:04:35.048Z,9.98
2023-04-25T15:07:01.972Z,10.08
2023-04-25T15:09:29.704Z,9.71
2023-04-25T15:11:56.344Z,9.99
2023-04-25T15:14:22.753Z,10.11
2023-04-25T15:16:49.278Z,9.87
2023-04-25T15:19:16.205Z,10.00
2023-04-25T15:21:42.615Z,10.53
2023-04-25T15:24:09.028Z,11.12
2023-04-25T15:26:35.390Z,10.95
2023-04-25T15:29:02.061Z,11.92
2023-04-25T15:31:28.564Z,14.27
2023-04-25T15:33:54.962Z,15.30
2023-04-25T15:36:22.363Z,15.14
2023-04-25T15:38:48.742Z,14.59
2023-04-25T15:41:15.115Z,12.11
2023-04-25T15:43:41.508Z,11.50
2023-04-25T15:46:07.985Z,11.18
2023-04-25T15:48:34.450Z,11.05
2023-04-25T15:51:00.968Z,10.83
2023-04-25T15:53:27.444Z,10.15
2023-04-25T15:55:53.834Z,10.54
2023-04-25T15:58:20.227Z,10.16
2023-04-25T16:00:48.941Z,9.72
2023-04-25T16:03:15.593Z,9.52
2023-04-25T16:05:42.490Z,9.86
2023-04-25T16:08:08.981Z,9.60
2023-04-25T16:10:35.476Z,9.18
2023-04-25T16:13:01.905Z,9.31
2023-04-25T16:15:28.357Z,9.23
2023-04-25T16:17:54.797Z,9.38
2023-04-25T16:20:21.271Z,9.62
2023-04-25T16:22:47.846Z,9.30
2023-04-25T16:25:14.238Z,9.32
2023-04-25T16:27:41.141Z,9.78
2023-04-25T16:30:08.668Z,9.44
2023-04-25T16:32:35.290Z,9.41
2023-04-25T16:35:01.977Z,9.32
2023-04-25T16:37:28.377Z,9.32
2023-04-25T16:39:54.768Z,9.51
2023-04-25T16:42:21.150Z,9.28
2023-04-25T16:44:47.605Z,9.47
2023-04-25T16:47:17.972Z,10.19
2023-04-25T16:49:46.031Z,11.02
2023-04-25T16:52:12.567Z,11.99
2023-04-25T16:54:39.078Z,11.23
2023-04-25T16:57:06.886Z,11.03
2023-04-25T16:59:33.274Z,10.38
2023-04-25T17:01:59.728Z,9.72
2023-04-25T17:04:26.841Z,9.42
2023-04-25T17:06:53.460Z,9.42
2023-04-25T17:09:19.887Z,9.23
2023-04-25T17:11:46.548Z,9.23
2023-04-25T17:14:12.980Z,9.41
2023-04-25T17:16:39.533Z,9.82
2023-04-25T17:19:06.384Z,9.83
2023-04-25T17:21:33.001Z,10.17
2023-04-25T17:23:59.413Z,10.24
2023-04-25T17:26:26.462Z,9.71
2023-04-25T17:28:53.850Z,9.94
2023-04-25T17:31:21.257Z,9.65
2023-04-25T17:33:48.310Z,9.72
2023-04-25T17:36:14.974Z,9.79
2023-04-25T17:38:41.356Z,9.47
2023-04-25T17:41:10.297Z,9.38
2023-04-25T17:43:36.698Z,9.34
2023-04-25T17:46:03.104Z,9.55
2023-04-25T17:48:31.541Z,9.99
2023-04-25T17:50:58.562Z,9.94
2023-04-25T17:53:24.993Z,9.95
2023-04-25T17:55:51.379Z,9.92
2023-04-25T17:58:17.796Z,9.62
2023-04-25T18:00:44.357Z,9.36
2023-04-25T18:03:11.236Z,9.07
2023-04-25T18:05:37.763Z,9.31
2023-04-25T18:08:05.880Z,8.79
2023-04-25T18:10:33.869Z,9.14
2023-04-25T18:13:00.467Z,8.84
2023-04-25T18:15:26.986Z,8.79
2023-04-25T18:17:53.467Z,8.85
2023-04-25T18:20:20.558Z,9.03
2023-04-25T18:22:47.039Z,8.88
2023-04-25T18:25:13.844Z,8.83
2023-04-25T18:27:41.093Z,8.74
2023-04-25T18:30:09.424Z,8.74
2023-04-25T18:32:35.864Z,8.45
2023-04-25T18:35:02.649Z,8.39
2023-04-25T18:37:29.045Z,8.45
2023-04-25T18:39:55.507Z,8.51
2023-04-25T18:42:22.365Z,8.23
2023-04-25T18:44:48.728Z,8.58
2023-04-25T18:47:15.350Z,8.40
2023-04-25T18:49:41.936Z,8.05
2023-04-25T18:52:10.495Z,8.35
2023-04-25T18:54:37.244Z,8.35
2023-04-25T18:57:04.134Z,8.49
2023-04-25T18:59:30.486Z,8.40
2023-04-25T19:01:56.946Z,8.35
2023-04-25T19:04:23.446Z,8.31
2023-04-25T19:06:51.036Z,8.30
2023-04-25T19:09:18.224Z,8.35
2023-04-25T19:11:44.644Z,8.03
2023-04-25T19:14:11.681Z,8.20
2023-04-25T19:16:41.547Z,8.14
2023-04-25T19:19:09.110Z,7.82
2023-04-25T19:21:35.956Z,7.97
2023-04-25T19:24:04.626Z,7.97
2023-04-25T19:26:31.363Z,7.74
2023-04-25T19:29:08.782Z,7.75
2023-04-25T19:31:36.390Z,7.68
2023-04-25T19:34:06.898Z,7.59
2023-04-25T19:36:33.825Z,7.53
2023-04-25T19:39:04.270Z,7.59
2023-04-25T19:41:32.056Z,7.55
2023-04-25T19:44:00.770Z,6.98
2023-04-25T19:46:27.194Z,7.09
2023-04-25T19:48:53.652Z,7.40
2023-04-25T19:51:20.884Z,6.96
2023-04-25T19:53:47.251Z,7.10
2023-04-25T19:56:13.879Z,6.92
2023-04-25T19:58:40.222Z,6.57
2023-04-25T20:01:06.679Z,6.80
2023-04-25T20:03:33.283Z,6.83
2023-04-25T20:05:59.743Z,6.76
2023-04-25T20:08:26.248Z,7.04
2023-04-25T20:10:52.671Z,6.84
2023-04-25T20:13:19.037Z,6.98
2023-04-25T20:15:45.907Z,7.09
2023-04-25T20:18:12.391Z,7.21
2023-04-25T20:20:38.825Z,7.21
2023-04-25T20:23:05.216Z,6.96
2023-04-25T20:25:31.575Z,7.17
2023-04-25T20:27:57.974Z,6.58
2023-04-25T20:30:24.398Z,6.88
2023-04-25T20:32:50.830Z,6.80
2023-04-25T20:35:17.549Z,6.58
2023-04-25T20:37:44.024Z,6.68
2023-04-25T20:40:10.603Z,6.89
2023-04-25T20:42:38.039Z,6.78
2023-04-25T20:45:07.684Z,6.84
2023-04-25T20:47:34.721Z,6.86
2023-04-25T20:50:03.851Z,7.03
2023-04-25T20:52:31.862Z,7.01
2023-04-25T20:54:58.485Z,6.96
2023-04-25T20:57:24.995Z,6.66
2023-04-25T20:59:51.497Z,6.39
2023-04-25T21:02:17.927Z,6.33
2023-04-25T21:04:44.440Z,6.49
2023-04-25T21:07:15.217Z,6.49
2023-04-25T21:09:45.566Z,6.21
2023-04-25T21:12:12.133Z,6.28
2023-04-25T21:14:38.584Z,6.09
2023-04-25T21:17:05.400Z,5.94
2023-04-25T21:19:31.912Z,6.09
2023-04-25T21:21:58.395Z,5.93
2023-04-25T21:24:26.856Z,6.04
2023-04-25T21:26:53.352Z,6.10
2023-04-25T21:29:19.729Z,5.61
2023-04-25T21:31:46.678Z,6.01
2023-04-25T21:34:13.147Z,5.88
2023-04-25T21:36:41.129Z,5.62
2023-04-25T21:39:07.531Z,5.78
2023-04-25T21:41:33.989Z,5.76
2023-04-25T21:44:00.448Z,5.76
2023-04-25T21:46:26.882Z,5.65
2023-04-25T21:48:53.993Z,5.32
2023-04-25T21:51:20.773Z,5.58
2023-04-25T21:53:47.197Z,5.88
2023-04-25T21:56:13.640Z,5.76
2023-04-25T21:58:40.050Z,6.02
2023-04-25T22:01:06.457Z,6.08
2023-04-25T22:03:34.008Z,6.07
2023-04-25T22:06:01.131Z,6.00
2023-04-25T22:08:27.547Z,5.71
2023-04-25T22:10:55.108Z,5.64
2023-04-25T22:13:22.565Z,5.69
2023-04-25T22:15:48.993Z,5.81
2023-04-25T22:18:16.252Z,5.73
2023-04-25T22:20:44.160Z,5.74
2023-04-25T22:23:11.843Z,5.82
2023-04-25T22:25:38.260Z,5.59
2023-04-25T22:28:05.158Z,5.22
2023-04-25T22:30:32.456Z,5.05
2023-04-25T22:32:58.887Z,5.17
2023-04-25T22:35:25.415Z,5.20
2023-04-25T22:37:51.851Z,4.82
2023-04-25T22:40:18.507Z,5.11
2023-04-25T22:42:44.918Z,4.94
2023-04-25T22:45:12.123Z,4.81
2023-04-25T22:47:39.354Z,5.07
2023-04-25T22:50:08.449Z,5.06
2023-04-25T22:52:35.015Z,4.89
2023-04-25T22:55:02.826Z,4.87
2023-04-25T22:57:29.528Z,4.71
2023-04-25T22:59:56.253Z,4.93
2023-04-25T23:02:22.906Z,5.05
2023-04-25T23:04:50.365Z,5.16
2023-04-25T23:07:17.454Z,5.33
2023-04-25T23:09:45.031Z,5.44
2023-04-25T23:12:11.488Z,5.23
2023-04-25T23:14:38.444Z,5.41
2023-04-25T23:17:05.206Z,5.31
2023-04-25T23:19:31.680Z,5.29
2023-04-25T23:21:58.947Z,5.47
2023-04-25T23:24:25.834Z,5.49
2023-04-25T23:26:52.273Z,5.35
2023-04-25T23:29:18.728Z,5.13
2023-04-25T23:31:45.276Z,5.15
2023-04-25T23:34:11.629Z,5.10
2023-04-25T23:36:38.011Z,5.15
2023-04-25T23:39:05.315Z,5.21
2023-04-25T23:41:32.036Z,4.98
2023-04-25T23:43:58.832Z,4.96
2023-04-25T23:46:25.873Z,5.08
2023-04-25T23:48:52.593Z,4.92
2023-04-25T23:51:19.546Z,5.01
2023-04-25T23:53:45.936Z,5.04
2023-04-25T23:56:12.366Z,5.18
2023-04-25T23:58:38.762Z,4.47
